createdAt,value
2018-04-25T00:00:51.224Z,89.40
2018-04-25T00:02:52.174Z,89.60
2018-04-25T00:04:53.138Z,89.40
2018-04-25T00:06:54.515Z,89.60
2018-04-25T00:08:55.478Z,89.70
2018-04-25T00:10:56.636Z,89.90
2018-04-25T00:12:58.004Z,89.00
2018-04-25T00:14:59.219Z,89.20
2018-04-25T00:17:00.582Z,89.00
2018-04-25T00:19:01.982Z,90.10
2018-04-25T00:21:02.972Z,90.10
2018-04-25T00:23:04.104Z,89.90
2018-04-25T00:25:05.087Z,89.30
2018-04-25T00:27:06.192Z,89.40
2018-04-25T00:29:07.307Z,88.90
2018-04-25T00:31:09.361Z,89.90
2018-04-25T00:33:11.298Z,90.20
2018-04-25T00:35:12.797Z,90.20
2018-04-25T00:37:13.788Z,90.20
2018-04-25T00:39:14.808Z,90.60
2018-04-25T00:41:16.300Z,91.00
2018-04-25T00:43:18.437Z,91.00
2018-04-25T00:45:19.472Z,90.40
2018-04-25T00:47:20.676Z,90.80
2018-04-25T00:49:21.644Z,91.10
2018-04-25T00:51:22.612Z,90.30
2018-04-25T00:53:23.582Z,90.10
2018-04-25T00:55:24.667Z,91.50
2018-04-25T00:57:26.029Z,91.90
2018-04-25T00:59:26.987Z,91.70
2018-04-25T01:01:27.962Z,91.80
2018-04-25T01:03:28.938Z,92.20
2018-04-25T01:05:29.900Z,92.40
2018-04-25T01:07:30.868Z,91.60
2018-04-25T01:09:32.196Z,92.10
2018-04-25T01:11:33.156Z,92.10
2018-04-25T01:13:34.483Z,91.70
2018-04-25T01:15:35.436Z,91.60
2018-04-25T01:17:36.779Z,91.60
2018-04-25T01:19:38.106Z,92.70
2018-04-25T01:21:39.039Z,92.60
2018-04-25T01:23:39.995Z,92.50
2018-04-25T01:25:41.402Z,92.90
2018-04-25T01:27:48.246Z,92.80
2018-04-25T01:29:49.203Z,92.30
2018-04-25T01:31:51.057Z,92.30
2018-04-25T01:33:52.052Z,92.90
2018-04-25T01:35:53.010Z,92.80
2018-04-25T01:37:55.938Z,92.40
2018-04-25T01:40:12.244Z,92.00
2018-04-25T01:42:29.436Z,92.40
2018-04-25T01:44:33.376Z,92.40
2018-04-25T01:46:34.343Z,92.60
2018-04-25T01:48:36.263Z,93.10
2018-04-25T01:50:37.207Z,93.50
2018-04-25T01:52:50.440Z,94.20
2018-04-25T01:55:03.875Z,93.50
2018-04-25T01:57:17.252Z,93.20
2018-04-25T01:59:30.926Z,94.30
2018-04-25T02:01:31.775Z,94.20
2018-04-25T02:03:41.809Z,94.70
2018-04-25T02:05:42.754Z,94.70
2018-04-25T02:07:43.719Z,94.60
2018-04-25T02:09:44.692Z,94.50
2018-04-25T02:11:45.635Z,94.50
2018-04-25T02:13:46.596Z,95.10
2018-04-25T02:15:47.683Z,95.70
2018-04-25T02:17:48.660Z,96.00
2018-04-25T02:19:49.631Z,95.90
2018-04-25T02:21:50.972Z,96.10
2018-04-25T02:23:51.928Z,96.00
2018-04-25T02:25:52.877Z,96.10
2018-04-25T02:27:53.838Z,96.20
2018-04-25T02:29:54.766Z,96.30
2018-04-25T02:31:55.755Z,96.60
2018-04-25T02:33:57.074Z,96.70
2018-04-25T02:35:58.039Z,96.60
2018-04-25T02:37:59.859Z,96.60
2018-04-25T02:40:00.841Z,96.70
2018-04-25T02:42:01.820Z,96.60
2018-04-25T02:44:02.796Z,96.10
2018-04-25T02:46:04.137Z,96.10
2018-04-25T02:48:05.484Z,96.30
2018-04-25T02:50:06.638Z,96.30
2018-04-25T02:52:07.616Z,96.50
2018-04-25T02:54:08.860Z,96.60
2018-04-25T02:56:09.819Z,96.70
2018-04-25T02:58:11.167Z,95.80
2018-04-25T03:00:12.491Z,95.50
2018-04-25T03:02:13.504Z,95.40
2018-04-25T03:04:14.459Z,95.90
2018-04-25T03:06:15.419Z,96.30
2018-04-25T03:08:17.033Z,96.90
2018-04-25T03:10:18.011Z,96.90
2018-04-25T03:12:18.947Z,96.90
2018-04-25T03:14:19.941Z,96.80
2018-04-25T03:16:20.924Z,96.50
2018-04-25T03:18:21.885Z,96.30
2018-04-25T03:20:22.834Z,96.50
2018-04-25T03:22:23.803Z,96.40
2018-04-25T03:24:25.143Z,96.70
2018-04-25T03:26:26.484Z,96.60
2018-04-25T03:28:27.915Z,96.50
2018-04-25T03:30:28.859Z,96.50
2018-04-25T03:32:29.815Z,96.30
2018-04-25T03:34:31.238Z,95.80
2018-04-25T03:36:32.218Z,95.80
2018-04-25T03:38:33.184Z,95.70
2018-04-25T03:40:34.133Z,95.80
2018-04-25T03:42:35.107Z,95.70
2018-04-25T03:44:36.191Z,95.60
2018-04-25T03:46:37.157Z,95.50
2018-04-25T03:48:38.504Z,95.60
2018-04-25T03:50:39.877Z,95.40
2018-04-25T03:52:40.871Z,95.50
2018-04-25T03:54:42.188Z,95.40
2018-04-25T03:56:43.168Z,95.50
2018-04-25T03:58:44.503Z,95.50
2018-04-25T04:00:45.827Z,95.30
2018-04-25T04:02:47.054Z,95.30
2018-04-25T04:04:47.999Z,95.30
2018-04-25T04:06:48.943Z,95.50
2018-04-25T04:08:49.926Z,95.20
2018-04-25T04:10:50.888Z,95.20
2018-04-25T04:12:51.886Z,95.20
2018-04-25T04:14:52.808Z,94.70
2018-04-25T04:16:53.776Z,95.00
2018-04-25T04:18:54.726Z,95.00
2018-04-25T04:20:56.348Z,94.90
2018-04-25T04:22:57.750Z,94.90
2018-04-25T04:24:59.081Z,94.90
2018-04-25T04:27:00.027Z,94.90
2018-04-25T04:29:01.395Z,94.50
2018-04-25T04:31:02.348Z,94.40
2018-04-25T04:33:03.305Z,94.10
2018-04-25T04:35:04.285Z,94.20
2018-04-25T04:37:05.611Z,94.20
2018-04-25T04:39:06.949Z,94.10
2018-04-25T04:41:07.907Z,94.10
2018-04-25T04:43:09.275Z,93.90
2018-04-25T04:45:10.203Z,93.90
2018-04-25T04:47:11.159Z,94.10
2018-04-25T04:49:12.098Z,94.30
2018-04-25T04:51:13.230Z,94.10
2018-04-25T04:53:14.206Z,94.20
2018-04-25T04:55:15.166Z,94.10
2018-04-25T04:57:16.131Z,94.10
2018-04-25T04:59:17.101Z,94.00
2018-04-25T05:01:18.050Z,94.40
2018-04-25T05:03:19.399Z,94.00
2018-04-25T05:05:20.726Z,94.10
2018-04-25T05:07:21.693Z,94.10
2018-04-25T05:09:22.654Z,94.30
2018-04-25T05:29:48.564Z,93.60
2018-04-25T05:33:53.358Z,93.80
2018-04-25T05:35:54.704Z,93.20
2018-04-25T05:52:16.546Z,92.60
2018-04-25T05:54:17.514Z,92.50
2018-04-25T05:56:18.475Z,92.40
2018-04-25T05:58:19.647Z,92.20
2018-04-25T06:00:20.646Z,92.30
2018-04-25T06:02:21.986Z,90.80
2018-04-25T06:04:22.959Z,90.60
2018-04-25T06:06:23.971Z,91.20
2018-04-25T06:08:26.408Z,90.10
2018-04-25T06:10:27.353Z,89.90
2018-04-25T06:12:28.366Z,89.40
2018-04-25T06:14:29.642Z,90.50
2018-04-25T06:16:31.001Z,90.60
2018-04-25T06:18:32.326Z,90.00
2018-04-25T06:20:33.294Z,90.10
2018-04-25T06:22:34.250Z,90.10
2018-04-25T06:26:38.792Z,90.10
2018-04-25T06:30:42.740Z,89.40
2018-04-25T06:32:46.756Z,90.00
2018-04-25T06:34:48.114Z,89.00
2018-04-25T06:38:52.583Z,88.90
2018-04-25T06:40:53.550Z,88.80
2018-04-25T06:42:54.494Z,89.00
2018-04-25T06:44:56.189Z,88.50
2018-04-25T06:46:57.130Z,88.40
2018-04-25T06:48:58.086Z,88.40
2018-04-25T06:50:59.055Z,88.60
2018-04-25T06:53:00.392Z,88.90
2018-04-25T06:55:01.719Z,88.70
2018-04-25T06:57:02.700Z,88.60
2018-04-25T06:59:03.734Z,89.00
2018-04-25T07:01:05.494Z,88.90
2018-04-25T07:03:07.970Z,89.30
2018-04-25T07:05:09.005Z,88.60
2018-04-25T07:07:09.900Z,89.00
2018-04-25T07:09:11.270Z,88.20
2018-04-25T07:11:12.216Z,88.00
2018-04-25T07:13:13.182Z,88.30
2018-04-25T07:15:15.506Z,87.90
2018-04-25T07:17:16.464Z,86.50
2018-04-25T07:19:17.427Z,87.30
2018-04-25T07:21:18.370Z,86.90
2018-04-25T07:23:19.317Z,86.20
2018-04-25T07:25:20.703Z,84.50
2018-04-25T07:27:21.675Z,84.50
2018-04-25T07:29:22.680Z,84.30
2018-04-25T07:31:23.622Z,84.70
2018-04-25T07:33:24.568Z,83.90
2018-04-25T07:35:25.562Z,83.80
2018-04-25T07:37:26.894Z,83.00
2018-04-25T07:39:27.847Z,82.90
2018-04-25T07:41:28.808Z,82.80
2018-04-25T07:43:29.767Z,81.20
2018-04-25T07:45:30.779Z,81.30
2018-04-25T07:47:31.728Z,81.40
2018-04-25T07:49:32.710Z,81.30
2018-04-25T07:51:33.660Z,81.00
2018-04-25T07:53:34.648Z,81.20
2018-04-25T07:55:35.594Z,81.40
2018-04-25T07:57:38.069Z,79.90
2018-04-25T07:59:46.751Z,80.20
2018-04-25T08:01:47.722Z,80.10
2018-04-25T08:03:48.772Z,80.60
2018-04-25T08:05:50.494Z,81.00
2018-04-25T08:07:52.182Z,80.70
2018-04-25T08:09:53.161Z,80.60
2018-04-25T08:11:54.344Z,80.60
2018-04-25T08:14:07.609Z,79.70
2018-04-25T08:16:21.075Z,79.60
2018-04-25T08:18:34.734Z,79.90
2018-04-25T08:20:48.099Z,80.00
2018-04-25T08:22:49.072Z,78.70
2018-04-25T08:24:50.024Z,78.70
2018-04-25T08:26:50.996Z,78.30
2018-04-25T08:28:51.958Z,78.20
2018-04-25T08:30:53.299Z,77.30
2018-04-25T08:32:54.610Z,77.10
2018-04-25T08:34:55.575Z,77.10
2018-04-25T08:36:56.907Z,75.00
2018-04-25T08:38:57.864Z,75.00
2018-04-25T08:40:59.176Z,74.80
2018-04-25T08:43:00.158Z,74.80
2018-04-25T08:45:01.233Z,74.40
2018-04-25T08:47:06.747Z,73.70
2018-04-25T08:49:07.755Z,73.40
2018-04-25T08:51:09.112Z,73.10
2018-04-25T08:53:10.054Z,73.10
2018-04-25T08:55:11.184Z,73.10
2018-04-25T08:57:12.132Z,73.70
2018-04-25T08:59:13.114Z,74.10
2018-04-25T09:01:14.055Z,74.10
2018-04-25T09:03:15.068Z,73.80
2018-04-25T09:05:16.045Z,73.90
2018-04-25T09:07:17.392Z,73.50
2018-04-25T09:09:18.364Z,73.50
2018-04-25T09:11:19.338Z,73.60
2018-04-25T09:13:20.371Z,74.10
2018-04-25T09:15:21.247Z,74.10
2018-04-25T09:17:22.197Z,74.60
2018-04-25T09:19:23.151Z,74.00
2018-04-25T09:21:24.103Z,72.20
2018-04-25T09:23:25.191Z,73.30
2018-04-25T09:25:26.142Z,73.50
2018-04-25T09:27:27.113Z,73.10
2018-04-25T09:29:28.446Z,74.50
2018-04-25T09:31:29.395Z,74.50
2018-04-25T09:33:30.751Z,75.10
2018-04-25T09:35:32.071Z,75.60
2018-04-25T09:37:33.422Z,76.10
2018-04-25T09:39:34.779Z,76.10
2018-04-25T09:41:36.100Z,76.90
2018-04-25T09:43:37.047Z,77.00
2018-04-25T09:45:38.379Z,78.20
2018-04-25T09:47:39.338Z,78.30
2018-04-25T09:49:40.665Z,79.20
2018-04-25T09:51:42.036Z,79.30
2018-04-25T09:53:43.516Z,79.20
2018-04-25T09:55:44.469Z,79.20
2018-04-25T09:57:45.461Z,79.50
2018-04-25T09:59:46.754Z,79.00
2018-04-25T10:01:53.918Z,79.10
2018-04-25T10:03:54.942Z,79.40
2018-04-25T10:05:56.210Z,80.60
2018-04-25T10:07:57.168Z,80.60
2018-04-25T10:09:58.522Z,80.80
2018-04-25T10:11:59.502Z,80.80
2018-04-25T10:14:00.582Z,81.70
2018-04-25T10:16:01.912Z,83.20
2018-04-25T10:18:03.243Z,83.80
2018-04-25T10:20:04.192Z,83.80
2018-04-25T10:22:05.311Z,84.80
2018-04-25T10:24:06.316Z,85.90
2018-04-25T10:26:07.232Z,86.10
2018-04-25T10:28:08.184Z,85.80
2018-04-25T10:30:09.146Z,85.60
2018-04-25T10:32:10.091Z,85.30
2018-04-25T10:34:11.339Z,84.20
2018-04-25T10:36:12.298Z,83.70
2018-04-25T10:38:13.244Z,82.70
2018-04-25T10:40:14.190Z,81.40
2018-04-25T10:42:15.289Z,81.50
2018-04-25T10:44:16.689Z,82.00
2018-04-25T10:46:17.571Z,82.00
2018-04-25T10:48:18.889Z,81.60
2018-04-25T10:50:19.848Z,81.70
2018-04-25T10:52:21.304Z,81.30
2018-04-25T10:54:22.271Z,81.20
2018-04-25T10:56:23.215Z,80.10
2018-04-25T10:58:24.168Z,79.40
2018-04-25T11:00:25.154Z,79.30
2018-04-25T11:02:26.418Z,78.70
2018-04-25T11:04:27.504Z,78.20
2018-04-25T11:06:28.414Z,77.60
2018-04-25T11:08:29.400Z,78.00
2018-04-25T11:10:30.336Z,77.60
2018-04-25T11:12:31.288Z,77.50
2018-04-25T11:14:32.270Z,77.30
2018-04-25T11:16:33.605Z,77.50
2018-04-25T11:18:35.466Z,77.50
2018-04-25T11:20:37.078Z,76.80
2018-04-25T11:22:38.083Z,76.70
2018-04-25T11:24:39.029Z,76.70
2018-04-25T11:26:40.384Z,77.10
2018-04-25T11:28:41.338Z,77.30
2018-04-25T11:30:42.288Z,77.40
2018-04-25T11:32:43.246Z,77.10
2018-04-25T11:34:44.585Z,77.90
2018-04-25T11:36:46.107Z,77.90
2018-04-25T11:38:47.078Z,78.30
2018-04-25T11:40:48.214Z,78.70
2018-04-25T11:42:49.226Z,78.90
2018-04-25T11:44:50.543Z,78.80
2018-04-25T11:46:51.756Z,78.80
2018-04-25T11:48:52.906Z,78.90
2018-04-25T11:50:53.860Z,78.30
2018-04-25T11:52:54.845Z,78.20
2018-04-25T11:54:55.780Z,77.70
2018-04-25T11:56:56.754Z,76.90
2018-04-25T11:58:57.718Z,75.90
2018-04-25T12:00:58.736Z,76.30
2018-04-25T12:02:59.786Z,76.20
2018-04-25T12:05:00.740Z,75.90
2018-04-25T12:07:02.062Z,76.70
2018-04-25T12:09:03.131Z,76.70
2018-04-25T12:11:04.093Z,78.00
2018-04-25T12:13:05.069Z,78.40
2018-04-25T12:15:06.001Z,78.10
2018-04-25T12:17:07.361Z,78.40
2018-04-25T12:19:08.707Z,78.20
2018-04-25T12:21:10.039Z,78.00
2018-04-25T12:23:11.375Z,77.70
2018-04-25T12:25:12.316Z,77.70
2018-04-25T12:27:13.686Z,77.30
2018-04-25T12:29:14.992Z,76.60
2018-04-25T12:31:15.948Z,76.60
2018-04-25T12:33:17.275Z,76.40
2018-04-25T12:35:18.795Z,76.70
2018-04-25T12:37:19.742Z,76.70
2018-04-25T12:39:20.688Z,76.60
2018-04-25T12:41:21.650Z,77.00
2018-04-25T12:43:22.591Z,78.20
2018-04-25T12:45:23.549Z,79.10
2018-04-25T12:47:24.515Z,79.30
2018-04-25T12:49:25.464Z,79.00
2018-04-25T12:51:26.807Z,79.10
2018-04-25T12:53:28.140Z,79.10
2018-04-25T12:55:29.098Z,79.30
2018-04-25T12:57:30.536Z,78.40
2018-04-25T12:59:31.881Z,78.20
2018-04-25T13:01:33.293Z,78.50
2018-04-25T13:03:34.539Z,77.70
2018-04-25T13:05:35.510Z,77.70
2018-04-25T13:07:37.003Z,78.70
2018-04-25T13:09:37.957Z,78.70
2018-04-25T13:11:38.897Z,80.40
2018-04-25T13:13:40.022Z,80.50
2018-04-25T13:15:40.980Z,80.40
2018-04-25T13:17:42.304Z,79.00
2018-04-25T13:19:43.427Z,79.00
2018-04-25T13:21:44.401Z,78.00
2018-04-25T13:23:45.727Z,76.20
2018-04-25T13:25:46.679Z,76.10
2018-04-25T13:27:48.016Z,76.50
2018-04-25T13:29:49.690Z,75.60
2018-04-25T13:31:50.642Z,75.60
2018-04-25T13:33:51.584Z,75.80
2018-04-25T13:35:53.077Z,75.30
2018-04-25T13:37:54.433Z,75.40
2018-04-25T13:39:55.371Z,75.40
2018-04-25T13:41:56.680Z,73.90
2018-04-25T13:43:57.656Z,73.90
2018-04-25T13:45:58.648Z,72.80
2018-04-25T13:47:59.603Z,72.50
2018-04-25T13:50:00.937Z,73.30
2018-04-25T13:52:01.895Z,73.20
2018-04-25T13:54:03.239Z,73.80
2018-04-25T13:56:04.192Z,73.80
2018-04-25T13:58:05.164Z,74.60
2018-04-25T14:00:06.121Z,74.30
2018-04-25T14:02:07.069Z,74.80
2018-04-25T14:04:08.405Z,74.60
2018-04-25T14:06:09.789Z,74.60
2018-04-25T14:08:10.733Z,74.60
2018-04-25T14:10:11.698Z,74.70
2018-04-25T14:12:12.652Z,73.40
2018-04-25T14:14:13.973Z,73.10
2018-04-25T14:16:14.945Z,73.10
2018-04-25T14:18:16.264Z,74.60
2018-04-25T14:20:17.220Z,74.60
2018-04-25T14:22:18.555Z,73.90
2018-04-25T14:24:19.895Z,74.60
2018-04-25T14:26:21.238Z,75.10
2018-04-25T14:28:22.570Z,74.90
2018-04-25T14:30:23.556Z,74.90
2018-04-25T14:32:24.846Z,74.70
2018-04-25T14:34:25.838Z,74.70
2018-04-25T14:36:26.792Z,74.30
2018-04-25T14:38:27.856Z,74.00
2018-04-25T14:40:28.987Z,74.30
2018-04-25T14:42:29.951Z,74.00
2018-04-25T14:44:31.265Z,73.00
2018-04-25T14:46:32.413Z,73.00
2018-04-25T14:48:33.847Z,71.40
2018-04-25T14:50:34.697Z,71.40
2018-04-25T14:52:36.052Z,70.70
2018-04-25T14:54:37.063Z,70.70
2018-04-25T14:56:37.973Z,69.50
2018-04-25T14:58:38.956Z,69.40
2018-04-25T15:00:39.919Z,69.10
2018-04-25T15:02:40.869Z,70.40
2018-04-25T15:04:41.828Z,71.40
2018-04-25T15:06:42.776Z,72.00
2018-04-25T15:08:43.810Z,73.10
2018-04-25T15:10:45.019Z,71.90
2018-04-25T15:12:45.979Z,71.40
2018-04-25T15:14:46.930Z,71.60
2018-04-25T15:16:48.275Z,70.60
2018-04-25T15:18:49.228Z,70.60
2018-04-25T15:20:51.532Z,71.70
2018-04-25T15:22:52.514Z,73.10
2018-04-25T15:24:53.831Z,72.60
2018-04-25T15:26:54.791Z,72.70
2018-04-25T15:28:56.138Z,72.70
2018-04-25T15:30:57.229Z,72.70
2018-04-25T15:32:58.186Z,72.00
2018-04-25T15:34:59.691Z,72.50
2018-04-25T15:37:00.724Z,72.50
2018-04-25T15:39:01.692Z,72.40
2018-04-25T15:41:02.638Z,72.60
2018-04-25T15:43:03.604Z,72.70
2018-04-25T15:45:04.570Z,72.40
2018-04-25T15:47:05.945Z,71.80
2018-04-25T15:49:07.161Z,71.60
2018-04-25T15:51:08.144Z,71.20
2018-04-25T15:53:09.482Z,71.30
2018-04-25T15:55:11.200Z,71.60
2018-04-25T15:57:12.184Z,71.60
2018-04-25T15:59:13.134Z,71.90
2018-04-25T16:01:14.100Z,72.40
2018-04-25T16:03:15.093Z,72.40
2018-04-25T16:05:16.049Z,72.60
2018-04-25T16:07:16.998Z,72.80
2018-04-25T16:09:17.971Z,72.70
2018-04-25T16:11:19.288Z,72.70
2018-04-25T16:13:20.268Z,72.70
2018-04-25T16:15:21.228Z,72.80
2018-04-25T16:17:22.204Z,72.70
2018-04-25T16:19:23.161Z,72.80
2018-04-25T16:21:24.493Z,72.60
2018-04-25T16:23:26.453Z,72.80
2018-04-25T16:25:27.787Z,72.70
2018-04-25T16:27:29.139Z,72.70
2018-04-25T16:29:30.485Z,74.20
2018-04-25T16:31:32.158Z,74.10
2018-04-25T16:33:33.138Z,74.10
2018-04-25T16:35:34.094Z,74.30
2018-04-25T16:37:35.420Z,74.20
2018-04-25T16:39:36.659Z,74.20
2018-04-25T16:41:37.624Z,74.40
2018-04-25T16:43:38.990Z,74.20
2018-04-25T16:45:39.956Z,74.20
2018-04-25T16:47:40.908Z,73.80
2018-04-25T16:49:41.977Z,74.40
2018-04-25T16:51:43.278Z,74.70
2018-04-25T16:53:44.272Z,74.80
2018-04-25T16:55:45.218Z,74.90
2018-04-25T16:57:46.355Z,75.70
2018-04-25T16:59:47.339Z,75.80
2018-04-25T17:01:48.298Z,75.90
2018-04-25T17:03:49.348Z,75.90
2018-04-25T17:05:50.300Z,75.60
2018-04-25T17:07:51.273Z,75.40
2018-04-25T17:09:52.238Z,75.20
2018-04-25T17:11:53.599Z,75.10
2018-04-25T17:13:54.543Z,75.10
2018-04-25T17:15:55.528Z,75.70
2018-04-25T17:17:56.472Z,76.50
2018-04-25T17:19:57.835Z,75.90
2018-04-25T17:21:58.828Z,75.90
2018-04-25T17:23:59.806Z,76.90
2018-04-25T17:26:00.882Z,76.90
2018-04-25T17:28:01.890Z,76.60
2018-04-25T17:30:02.850Z,76.40
2018-04-25T17:32:03.857Z,76.20
2018-04-25T17:34:05.183Z,76.10
2018-04-25T17:36:06.139Z,76.00
2018-04-25T17:38:07.101Z,76.00
2018-04-25T17:40:08.059Z,76.30
2018-04-25T17:42:09.006Z,76.60
2018-04-25T17:44:10.334Z,76.50
2018-04-25T17:46:11.848Z,76.70
2018-04-25T17:48:12.811Z,76.70
2018-04-25T17:50:13.776Z,76.70
2018-04-25T17:52:15.129Z,77.40
2018-04-25T17:54:16.088Z,77.40
2018-04-25T17:56:17.027Z,77.40
2018-04-25T17:58:17.996Z,77.10
2018-04-25T18:00:19.002Z,77.20
2018-04-25T18:02:19.914Z,77.10
2018-04-25T18:04:20.874Z,77.40
2018-04-25T18:06:21.854Z,77.50
2018-04-25T18:08:23.183Z,77.60
2018-04-25T18:10:24.524Z,77.60
2018-04-25T18:12:25.854Z,77.50
2018-04-25T18:14:26.831Z,77.50
2018-04-25T18:16:27.783Z,77.50
2018-04-25T18:18:28.755Z,77.40
2018-04-25T18:20:29.716Z,77.70
2018-04-25T18:22:31.068Z,78.30
2018-04-25T18:24:32.032Z,78.40
2018-04-25T18:26:32.989Z,78.80
2018-04-25T18:28:33.952Z,79.00
2018-04-25T18:30:34.913Z,79.40
2018-04-25T18:32:35.942Z,79.90
2018-04-25T18:34:36.898Z,80.40
2018-04-25T18:36:37.856Z,80.60
2018-04-25T18:38:38.803Z,80.70
2018-04-25T18:40:39.802Z,80.50
2018-04-25T18:42:40.939Z,80.50
2018-04-25T18:44:41.903Z,80.70
2018-04-25T18:46:42.878Z,80.90
2018-04-25T18:48:44.329Z,81.30
2018-04-25T18:50:45.293Z,81.20
2018-04-25T18:52:46.227Z,81.20
2018-04-25T18:54:47.208Z,81.50
2018-04-25T18:56:48.176Z,81.20
2018-04-25T18:58:49.133Z,81.60
2018-04-25T19:00:50.096Z,81.50
2018-04-25T19:02:51.363Z,81.30
2018-04-25T19:04:52.695Z,81.00
2018-04-25T19:06:53.687Z,81.00
2018-04-25T19:08:55.623Z,80.90
2018-04-25T19:10:56.606Z,81.00
2018-04-25T19:12:57.623Z,81.40
2018-04-25T19:14:58.594Z,81.90
2018-04-25T19:17:00.556Z,82.10
2018-04-25T19:19:01.903Z,82.20
2018-04-25T19:21:03.255Z,81.90
2018-04-25T19:23:04.590Z,82.20
2018-04-25T19:25:05.940Z,82.20
2018-04-25T19:27:07.266Z,82.60
2018-04-25T19:29:08.217Z,82.60
2018-04-25T19:31:09.604Z,82.60
2018-04-25T19:33:10.550Z,82.60
2018-04-25T19:35:11.511Z,82.80
2018-04-25T19:37:12.501Z,82.80
2018-04-25T19:39:13.709Z,82.70
2018-04-25T19:41:15.031Z,83.00
2018-04-25T19:43:16.350Z,83.20
2018-04-25T19:45:18.143Z,83.40
2018-04-25T19:47:19.094Z,83.30
2018-04-25T19:49:20.036Z,83.60
2018-04-25T19:51:21.036Z,84.20
2018-04-25T19:53:22.402Z,83.90
2018-04-25T19:55:23.371Z,83.90
2018-04-25T19:57:24.347Z,84.60
2018-04-25T19:59:25.475Z,84.80
2018-04-25T20:01:26.666Z,84.30
2018-04-25T20:03:28.059Z,84.70
2018-04-25T20:05:29.396Z,84.40
2018-04-25T20:07:30.364Z,84.30
2018-04-25T20:09:31.694Z,84.30
2018-04-25T20:11:33.026Z,84.30
2018-04-25T20:13:34.048Z,84.20
2018-04-25T20:15:35.019Z,84.50
2018-04-25T20:17:36.334Z,84.00
2018-04-25T20:19:37.303Z,84.10
2018-04-25T20:21:38.435Z,84.20
2018-04-25T20:23:39.454Z,84.50
2018-04-25T20:25:40.791Z,84.90
2018-04-25T20:27:42.128Z,84.50
2018-04-25T20:29:43.107Z,84.40
2018-04-25T20:31:44.057Z,84.70
2018-04-25T20:33:45.401Z,85.10
2018-04-25T20:35:46.447Z,85.50
2018-04-25T20:37:47.435Z,85.80
2018-04-25T20:39:48.741Z,85.90
2018-04-25T20:41:49.729Z,85.90
2018-04-25T20:43:50.675Z,86.00
2018-04-25T20:45:51.624Z,86.30
2018-04-25T20:47:52.584Z,86.60
2018-04-25T20:49:53.534Z,86.80
2018-04-25T20:51:54.488Z,86.70
2018-04-25T20:53:55.811Z,85.80
2018-04-25T20:55:57.131Z,85.70
2018-04-25T20:57:58.111Z,85.70
2018-04-25T20:59:59.432Z,85.80
2018-04-25T21:02:00.763Z,85.40
2018-04-25T21:04:01.762Z,85.60
2018-04-25T21:06:02.892Z,85.80
2018-04-25T21:08:03.867Z,86.00
2018-04-25T21:10:04.822Z,86.00
2018-04-25T21:12:06.142Z,86.70
2018-04-25T21:14:07.123Z,86.70
2018-04-25T21:16:08.448Z,87.00
2018-04-25T21:18:09.787Z,86.60
2018-04-25T21:20:11.112Z,86.10
2018-04-25T21:22:12.079Z,86.20
2018-04-25T21:24:13.031Z,87.00
2018-04-25T21:26:13.978Z,87.00
2018-04-25T21:28:14.941Z,87.20
2018-04-25T21:30:15.883Z,87.20
2018-04-25T21:32:16.831Z,87.40
2018-04-25T21:34:18.105Z,87.50
2018-04-25T21:36:19.067Z,87.30
2018-04-25T21:38:20.026Z,87.50
2018-04-25T21:40:20.973Z,87.40
2018-04-25T21:42:21.923Z,87.80
2018-04-25T21:44:23.269Z,88.00
2018-04-25T21:46:24.219Z,88.00
2018-04-25T21:48:25.170Z,88.30
2018-04-25T21:50:26.124Z,88.10
2018-04-25T21:52:27.103Z,88.00
2018-04-25T21:54:28.445Z,88.20
2018-04-25T21:56:29.774Z,88.40
2018-04-25T21:58:31.098Z,88.50
2018-04-25T22:00:32.054Z,88.60
2018-04-25T22:02:33.389Z,88.70
2018-04-25T22:04:34.714Z,88.70
2018-04-25T22:06:35.670Z,88.80
2018-04-25T22:08:36.615Z,88.80
2018-04-25T22:10:37.942Z,89.20
2018-04-25T22:12:39.262Z,89.40
2018-04-25T22:14:40.244Z,89.40
2018-04-25T22:16:41.676Z,89.30
2018-04-25T22:18:43.008Z,89.60
2018-04-25T22:20:44.326Z,89.60
2018-04-25T22:22:45.310Z,89.80
2018-04-25T22:24:46.241Z,89.70
2018-04-25T22:26:47.552Z,90.10
2018-04-25T22:28:48.674Z,90.00
2018-04-25T22:30:49.699Z,90.20
2018-04-25T22:32:50.661Z,90.20
2018-04-25T22:34:51.625Z,89.70
2018-04-25T22:36:52.949Z,89.90
2018-04-25T22:38:54.298Z,90.10
2018-04-25T22:40:55.814Z,90.10
2018-04-25T22:42:56.791Z,89.90
2018-04-25T22:44:57.748Z,90.20
2018-04-25T22:46:58.699Z,90.60
2018-04-25T22:48:59.646Z,90.60
2018-04-25T22:51:00.923Z,90.60
2018-04-25T22:53:02.260Z,90.90
2018-04-25T22:55:03.579Z,90.90
2018-04-25T22:57:04.723Z,90.90
2018-04-25T22:59:05.671Z,90.90
2018-04-25T23:01:06.633Z,90.80
2018-04-25T23:03:07.595Z,90.80
2018-04-25T23:05:08.559Z,90.90
2018-04-25T23:07:09.536Z,91.00
2018-04-25T23:09:10.873Z,91.30
2018-04-25T23:11:12.202Z,91.00
2018-04-25T23:13:13.542Z,91.10
2018-04-25T23:15:14.883Z,91.30
2018-04-25T23:17:15.825Z,91.10
2018-04-25T23:19:17.456Z,91.30
2018-04-25T23:21:18.404Z,91.30
2018-04-25T23:23:19.342Z,91.40
2018-04-25T23:25:20.678Z,91.60
2018-04-25T23:27:21.633Z,91.40
2018-04-25T23:29:22.956Z,91.40
2018-04-25T23:31:23.932Z,91.40
2018-04-25T23:33:24.883Z,91.60
2018-04-25T23:35:25.822Z,91.50
2018-04-25T23:37:26.771Z,91.60
2018-04-25T23:39:27.725Z,91.70
2018-04-25T23:41:28.678Z,91.70
2018-04-25T23:43:30.023Z,91.70
2018-04-25T23:45:30.962Z,91.70
2018-04-25T23:47:32.275Z,92.00
2018-04-25T23:49:33.224Z,92.00
2018-04-25T23:51:34.561Z,92.20
2018-04-25T23:53:35.883Z,92.30
2018-04-25T23:55:36.829Z,92.10
2018-04-25T23:57:37.799Z,92.20
2018-04-25T23:59:38.752Z,92.00
